Time;durP1;ratioP1;P1;durP2;ratioP2;P2;SDS_P1;SDS_P2;PMS_P1;PMS_P2;Temp;Humidity;BMP_temperature;BMP_pressure;BME280_temperature;BME280_humidity;BME280_pressure;Samples;Min_cycle;Max_cycle;Signal;HPM_P1;HPM_P2
2022/03/27 00:00:44;;;;;;;34.85;21.23;;;10.90;79.50;;;;;;5055567;28;20474;-76
2022/03/27 00:03:10;;;;;;;36.67;21.20;;;11.20;78.50;;;;;;5055402;28;20047;-80
2022/03/27 00:05:36;;;;;;;32.58;20.20;;;11.40;77.90;;;;;;5055119;28;20041;-81
2022/03/27 00:08:02;;;;;;;35.22;19.73;;;11.50;77.50;;;;;;5055048;28;20033;-77
2022/03/27 00:10:28;;;;;;;34.97;20.38;;;11.50;78.20;;;;;;5055193;28;20075;-80
2022/03/27 00:12:53;;;;;;;39.42;21.33;;;11.30;77.90;;;;;;5054898;28;20454;-78
2022/03/27 00:15:19;;;;;;;36.60;21.67;;;11.40;77.50;;;;;;5055225;28;20036;-80
2022/03/27 00:17:45;;;;;;;38.55;21.75;;;11.40;77.70;;;;;;5055102;28;20051;-81
2022/03/27 00:20:15;;;;;;;37.80;21.67;;;11.20;78.00;;;;;;5053719;28;20124;-81
2022/03/27 00:22:40;;;;;;;37.25;21.23;;;11.30;77.70;;;;;;5055024;28;20120;-79
2022/03/27 00:25:07;;;;;;;44.20;23.35;;;11.40;77.10;;;;;;5054586;28;20464;-81
2022/03/27 00:27:34;;;;;;;39.97;22.55;;;11.50;77.50;;;;;;5054101;28;20044;-82
2022/03/27 00:30:00;;;;;;;37.78;21.83;;;11.50;77.00;;;;;;5054761;28;20037;-83
2022/03/27 00:32:26;;;;;;;37.88;23.02;;;11.50;77.20;;;;;;5054698;28;20512;-82
2022/03/27 00:34:53;;;;;;;36.28;21.58;;;11.40;77.70;;;;;;5055067;28;20044;-79
2022/03/27 00:37:19;;;;;;;45.83;23.45;;;11.30;78.00;;;;;;5054759;28;20039;-71
2022/03/27 00:39:45;;;;;;;37.67;22.50;;;11.20;78.20;;;;;;5054711;28;20037;-82
2022/03/27 00:42:10;;;;;;;42.03;22.98;;;11.10;79.10;;;;;;5054440;28;20051;-82
2022/03/27 00:44:38;;;;;;;38.00;24.05;;;11.10;78.80;;;;;;5054548;28;20044;-81
2022/03/27 00:47:05;;;;;;;40.05;23.73;;;10.90;79.40;;;;;;5054302;28;20054;-80
2022/03/27 00:49:32;;;;;;;39.25;23.63;;;10.70;80.60;;;;;;5054184;28;20037;-82
2022/03/27 00:51:57;;;;;;;46.85;25.73;;;10.70;80.20;;;;;;5054255;28;20124;-80
2022/03/27 00:54:23;;;;;;;40.65;23.73;;;11.00;79.20;;;;;;5054333;28;20121;-81
2022/03/27 00:56:49;;;;;;;43.10;24.75;;;11.40;78.10;;;;;;5054347;28;20463;-81
2022/03/27 00:59:15;;;;;;;38.10;22.20;;;10.60;80.00;;;;;;5054099;28;20098;-81
2022/03/27 01:01:43;;;;;;;36.35;22.58;;;10.60;80.50;;;;;;5054023;28;20392;-84
2022/03/27 01:04:10;;;;;;;43.85;25.10;;;10.30;82.40;;;;;;5054098;28;20404;-84
2022/03/27 01:06:41;;;;;;;44.50;24.92;;;10.10;82.40;;;;;;5053866;28;20052;-70
2022/03/27 01:12:32;;;;;;;39.00;23.75;;;10.70;80.50;;;;;;5054096;28;20090;-82
2022/03/27 01:14:59;;;;;;;44.75;24.15;;;10.90;80.10;;;;;;5053514;28;20051;-72
2022/03/27 01:17:26;;;;;;;41.55;23.98;;;10.90;79.90;;;;;;5054151;28;20041;-80
2022/03/27 01:19:54;;;;;;;44.42;25.77;;;11.00;79.70;;;;;;5053957;28;20033;-82
2022/03/27 01:22:22;;;;;;;42.45;22.70;;;11.10;79.40;;;;;;5054034;28;20053;-73
2022/03/27 01:24:50;;;;;;;38.90;23.50;;;10.80;81.30;;;;;;5053877;28;20060;-80
2022/03/27 01:27:16;;;;;;;39.60;22.38;;;9.90;82.70;;;;;;5053742;28;20132;-82
2022/03/27 01:29:42;;;;;;;36.78;23.02;;;9.80;83.30;;;;;;5053880;28;20153;-82
2022/03/27 01:32:14;;;;;;;38.67;22.75;;;9.40;84.50;;;;;;5053464;28;20044;-77
2022/03/27 01:34:44;;;;;;;43.50;25.10;;;9.30;84.90;;;;;;5053722;28;20041;-81
2022/03/27 01:37:12;;;;;;;40.15;24.33;;;9.70;83.60;;;;;;5053647;28;20029;-82
2022/03/27 01:39:39;;;;;;;43.33;24.25;;;10.10;82.70;;;;;;5053415;28;20395;-81
2022/03/27 01:42:06;;;;;;;41.42;24.30;;;10.00;82.70;;;;;;5053198;28;20048;-79
2022/03/27 01:44:32;;;;;;;38.92;22.95;;;10.00;82.50;;;;;;5053313;28;20032;-81
2022/03/27 01:46:59;;;;;;;44.88;22.73;;;10.40;81.50;;;;;;5053375;28;20608;-83
2022/03/27 01:49:26;;;;;;;38.40;22.55;;;10.40;81.40;;;;;;5053222;28;20033;-83
2022/03/27 01:51:53;;;;;;;40.75;24.05;;;10.20;82.10;;;;;;5053355;28;20076;-78
2022/03/27 01:54:19;;;;;;;39.28;23.52;;;10.30;82.10;;;;;;5053065;28;20035;-74
2022/03/27 01:56:45;;;;;;;38.65;22.52;;;10.20;82.20;;;;;;5052987;28;20024;-82
2022/03/27 01:59:11;;;;;;;48.22;26.13;;;10.20;82.60;;;;;;5052982;28;20036;-80
2022/03/27 02:01:38;;;;;;;40.90;23.80;;;10.20;82.40;;;;;;5053200;28;20045;-81
2022/03/27 02:04:04;;;;;;;43.15;23.70;;;10.30;82.00;;;;;;5053227;28;20064;-82
2022/03/27 02:06:32;;;;;;;48.65;24.42;;;10.20;82.40;;;;;;5047971;28;20048;-73
2022/03/27 02:08:59;;;;;;;40.95;23.98;;;10.20;82.20;;;;;;5033180;28;20040;-81
2022/03/27 02:11:26;;;;;;;40.45;24.10;;;10.10;82.60;;;;;;5033063;28;20420;-81
2022/03/27 02:13:51;;;;;;;44.08;24.52;;;10.10;82.90;;;;;;5032860;28;20083;-77
2022/03/27 02:16:18;;;;;;;42.30;23.33;;;10.10;83.00;;;;;;5033121;28;20049;-80
2022/03/27 02:18:44;;;;;;;40.83;23.80;;;10.20;82.70;;;;;;5033069;28;20041;-81
2022/03/27 02:21:10;;;;;;;40.05;23.80;;;10.10;83.00;;;;;;5032973;28;20041;-73
2022/03/27 02:23:36;;;;;;;42.05;23.27;;;10.20;82.80;;;;;;5033019;28;20148;-81
2022/03/27 02:26:02;;;;;;;44.10;24.25;;;10.20;82.80;;;;;;5032947;28;20071;-75
2022/03/27 02:28:28;;;;;;;40.50;23.02;;;10.20;82.60;;;;;;5033061;28;20049;-81
2022/03/27 02:30:54;;;;;;;46.42;25.05;;;10.30;82.30;;;;;;5030023;28;20052;-79
2022/03/27 02:33:19;;;;;;;39.30;22.98;;;10.20;82.50;;;;;;5013882;28;20041;-81
2022/03/27 02:35:45;;;;;;;40.45;22.33;;;10.20;82.70;;;;;;5010826;28;20042;-82
2022/03/27 02:38:12;;;;;;;41.85;23.67;;;10.00;83.20;;;;;;5012358;28;20042;-73
2022/03/27 02:40:39;;;;;;;40.83;24.17;;;9.90;83.30;;;;;;5012489;28;20069;-71
2022/03/27 02:43:05;;;;;;;44.67;24.60;;;9.80;83.60;;;;;;5013119;28;20076;-81
2022/03/27 02:45:32;;;;;;;39.75;24.13;;;9.70;83.90;;;;;;5016798;28;20045;-81
2022/03/27 02:47:59;;;;;;;38.42;23.08;;;9.70;83.80;;;;;;5017029;28;20045;-80
2022/03/27 02:50:26;;;;;;;40.13;22.83;;;9.20;84.80;;;;;;4999415;28;20095;-82
2022/03/27 02:52:52;;;;;;;43.25;24.73;;;9.10;85.50;;;;;;5017058;28;20034;-83
2022/03/27 02:55:19;;;;;;;46.75;23.83;;;9.20;85.40;;;;;;5016861;28;20041;-82
2022/03/27 02:57:45;;;;;;;44.08;25.48;;;9.40;84.80;;;;;;5016809;28;20403;-81
2022/03/27 03:00:12;;;;;;;45.17;22.77;;;9.50;84.70;;;;;;5016793;28;20113;-78
2022/03/27 03:02:37;;;;;;;38.45;22.88;;;9.30;85.20;;;;;;5016745;28;20801;-83
2022/03/27 03:05:04;;;;;;;41.65;24.13;;;9.20;85.60;;;;;;5016430;28;20049;-78
2022/03/27 03:07:31;;;;;;;35.13;21.83;;;9.20;85.90;;;;;;5035421;28;20041;-83
2022/03/27 03:09:57;;;;;;;39.72;24.17;;;9.10;86.20;;;;;;5036607;28;20416;-83
2022/03/27 03:12:23;;;;;;;43.60;23.23;;;9.20;85.90;;;;;;5036505;28;20054;-81
2022/03/27 03:14:52;;;;;;;42.25;24.67;;;9.40;85.20;;;;;;5036469;28;20041;-80
2022/03/27 03:17:20;;;;;;;38.80;23.63;;;9.50;84.90;;;;;;5036433;28;20037;-81
2022/03/27 03:19:46;;;;;;;44.70;25.33;;;9.50;84.70;;;;;;5036315;28;20111;-84
2022/03/27 03:22:12;;;;;;;43.50;24.55;;;9.70;84.20;;;;;;5035039;28;20037;-82
2022/03/27 03:24:37;;;;;;;42.70;23.90;;;9.80;84.00;;;;;;5036210;28;20033;-83
2022/03/27 03:27:03;;;;;;;42.38;23.23;;;9.90;83.40;;;;;;5036106;28;20394;-83
2022/03/27 03:29:29;;;;;;;44.72;23.40;;;10.00;82.90;;;;;;5036316;28;20033;-75
2022/03/27 03:31:55;;;;;;;41.63;23.70;;;10.10;82.40;;;;;;5035928;28;20053;-71
2022/03/27 03:34:21;;;;;;;45.58;23.17;;;10.20;82.20;;;;;;5036969;28;20033;-82
2022/03/27 03:36:47;;;;;;;43.63;23.83;;;10.20;82.10;;;;;;5036179;28;20590;-79
2022/03/27 03:39:12;;;;;;;38.17;22.48;;;10.00;83.00;;;;;;5036082;28;20568;-82
2022/03/27 03:41:38;;;;;;;37.15;22.55;;;9.50;84.20;;;;;;5035956;28;20077;-75
2022/03/27 03:44:04;;;;;;;39.83;24.42;;;9.40;84.00;;;;;;5036107;28;20048;-80
2022/03/27 03:46:30;;;;;;;48.45;24.73;;;9.80;83.40;;;;;;5035730;28;20049;-71
2022/03/27 03:48:55;;;;;;;42.55;22.92;;;9.60;82.80;;;;;;5044725;28;20039;-82
2022/03/27 03:51:21;;;;;;;38.05;22.00;;;9.70;85.00;;;;;;5055650;28;20451;-82
2022/03/27 03:53:47;;;;;;;34.33;20.95;;;9.50;84.90;;;;;;5055683;28;20037;-82
2022/03/27 03:56:13;;;;;;;47.53;24.20;;;9.40;84.80;;;;;;5055332;28;20055;-83
2022/03/27 03:58:39;;;;;;;42.63;23.73;;;9.50;84.00;;;;;;5055599;28;20041;-83
2022/03/27 04:01:04;;;;;;;40.33;22.40;;;9.70;83.20;;;;;;5055538;28;20400;-81
2022/03/27 04:03:31;;;;;;;37.05;23.27;;;9.70;84.10;;;;;;5055359;28;20108;-71
2022/03/27 04:05:56;;;;;;;41.50;22.42;;;9.60;84.40;;;;;;5055200;28;20095;-82
2022/03/27 04:08:22;;;;;;;44.17;25.25;;;9.50;85.20;;;;;;5055152;28;20029;-78
2022/03/27 04:10:48;;;;;;;45.67;25.67;;;9.40;84.70;;;;;;5055014;28;20416;-83
2022/03/27 04:13:14;;;;;;;37.05;22.95;;;9.40;84.40;;;;;;5055245;28;20397;-82
2022/03/27 04:15:40;;;;;;;43.03;24.30;;;9.30;85.50;;;;;;5054839;28;20039;-78
2022/03/27 04:18:06;;;;;;;46.03;25.38;;;9.20;86.50;;;;;;5054751;28;20040;-85
2022/03/27 04:20:34;;;;;;;42.00;24.75;;;8.90;86.30;;;;;;5055182;28;20041;-84
2022/03/27 04:23:01;;;;;;;39.95;23.63;;;8.80;87.30;;;;;;5055052;28;20068;-84
2022/03/27 04:25:28;;;;;;;39.45;23.27;;;8.80;86.80;;;;;;5054766;28;20041;-84
2022/03/27 04:27:54;;;;;;;42.75;24.30;;;8.90;86.10;;;;;;5054738;28;20037;-84
2022/03/27 04:30:20;;;;;;;38.42;23.30;;;8.80;86.20;;;;;;5054837;28;20845;-84
2022/03/27 04:32:47;;;;;;;38.03;23.92;;;8.60;86.90;;;;;;5055008;28;20045;-81
2022/03/27 04:35:14;;;;;;;40.85;22.52;;;8.40;87.40;;;;;;5054796;28;20068;-84
2022/03/27 04:37:41;;;;;;;40.08;23.02;;;8.70;86.90;;;;;;5054780;28;20072;-84
2022/03/27 04:40:08;;;;;;;41.08;22.48;;;8.80;86.50;;;;;;5054705;28;20112;-81
2022/03/27 04:42:34;;;;;;;41.95;24.05;;;8.90;86.00;;;;;;5054663;28;20044;-83
2022/03/27 04:44:59;;;;;;;42.42;24.33;;;8.90;85.90;;;;;;5054468;28;20029;-83
2022/03/27 04:47:25;;;;;;;42.78;24.55;;;8.90;85.80;;;;;;5054538;28;20484;-84
2022/03/27 04:49:51;;;;;;;35.95;22.27;;;9.00;85.50;;;;;;5054543;28;20040;-76
2022/03/27 04:52:17;;;;;;;40.67;24.73;;;8.90;85.90;;;;;;5054546;28;20048;-84
2022/03/27 04:54:43;;;;;;;41.90;24.33;;;8.80;86.20;;;;;;5054422;28;20116;-84
2022/03/27 04:57:09;;;;;;;41.85;24.63;;;8.70;86.30;;;;;;5054309;28;20120;-85
2022/03/27 04:59:34;;;;;;;44.83;25.02;;;8.50;87.40;;;;;;5054351;28;20033;-76
2022/03/27 05:02:01;;;;;;;43.67;25.02;;;8.30;87.90;;;;;;5054459;28;20048;-82
2022/03/27 05:04:27;;;;;;;44.63;25.00;;;;;;;;;;5054305;28;20041;-76
2022/03/27 05:06:54;;;;;;;40.88;24.13;;;8.20;87.60;;;;;;5053356;28;20045;-84
2022/03/27 05:09:20;;;;;;;42.58;23.90;;;8.30;88.00;;;;;;5054083;28;20037;-84
2022/03/27 05:11:47;;;;;;;39.22;23.50;;;8.20;88.20;;;;;;5054006;28;20051;-85
2022/03/27 05:14:13;;;;;;;43.67;24.73;;;;;;;;;;5053976;28;20492;-79
2022/03/27 05:16:39;;;;;;;45.97;25.25;;;8.60;86.80;;;;;;5053947;28;20059;-74
2022/03/27 05:19:05;;;;;;;43.50;24.17;;;8.80;86.60;;;;;;5053910;28;20036;-84
2022/03/27 05:21:32;;;;;;;40.85;23.80;;;8.80;86.60;;;;;;5053826;28;20040;-84
2022/03/27 05:23:58;;;;;;;44.95;23.95;;;8.70;86.70;;;;;;5053773;28;20041;-85
2022/03/27 05:26:25;;;;;;;42.72;24.58;;;8.70;86.90;;;;;;5053984;28;20048;-84
2022/03/27 05:28:51;;;;;;;46.88;25.08;;;8.70;87.00;;;;;;5053656;28;20035;-85
2022/03/27 05:31:17;;;;;;;44.15;23.65;;;8.70;86.90;;;;;;5053369;28;20075;-84
2022/03/27 05:33:43;;;;;;;41.38;24.40;;;8.70;86.90;;;;;;5052537;28;20061;-78
2022/03/27 05:36:10;;;;;;;42.88;23.92;;;8.80;86.80;;;;;;5052862;28;20135;-70
2022/03/27 05:38:40;;;;;;;46.75;23.92;;;8.80;86.60;;;;;;5052345;28;20071;-84
2022/03/27 05:41:07;;;;;;;39.33;24.23;;;8.90;86.20;;;;;;5053522;28;20037;-82
2022/03/27 05:43:33;;;;;;;39.03;23.70;;;9.00;86.20;;;;;;5053294;28;20052;-83
2022/03/27 05:45:59;;;;;;;42.85;24.35;;;9.00;85.80;;;;;;5053523;28;20515;-82
2022/03/27 05:48:25;;;;;;;44.13;24.30;;;9.00;85.70;;;;;;5035665;28;20049;-84
2022/03/27 05:50:51;;;;;;;42.47;23.58;;;8.90;87.00;;;;;;5053474;28;20044;-84
2022/03/27 05:53:17;;;;;;;35.17;21.27;;;8.70;87.40;;;;;;5053363;28;20059;-84
2022/03/27 05:55:43;;;;;;;40.10;22.58;;;8.50;88.30;;;;;;5053265;28;20049;-84
2022/03/27 05:58:09;;;;;;;37.60;22.83;;;8.40;88.20;;;;;;5053292;28;20033;-80
2022/03/27 06:00:34;;;;;;;38.63;22.83;;;8.40;88.00;;;;;;5053266;28;20126;-81
2022/03/27 06:03:01;;;;;;;41.08;22.95;;;8.60;88.10;;;;;;5053158;28;20059;-85
2022/03/27 06:05:27;;;;;;;41.83;23.73;;;8.60;88.30;;;;;;5052987;28;20490;-85
2022/03/27 06:07:55;;;;;;;44.92;24.20;;;8.70;87.70;;;;;;5053064;28;20052;-83
2022/03/27 06:10:32;;;;;;;50.80;23.58;;;8.70;87.30;;;;;;5052915;28;20033;-82
2022/03/27 06:13:01;;;;;;;41.05;23.30;;;8.70;88.00;;;;;;5053146;28;20053;-85
2022/03/27 06:15:28;;;;;;;44.03;24.15;;;8.70;87.80;;;;;;5035173;28;20068;-84
2022/03/27 06:17:55;;;;;;;46.45;24.63;;;8.70;87.70;;;;;;5052645;28;20044;-77
2022/03/27 06:20:26;;;;;;;46.10;25.00;;;8.80;87.40;;;;;;5052853;28;20161;-83
2022/03/27 06:22:52;;;;;;;41.33;23.70;;;8.80;87.70;;;;;;5052720;28;20044;-82
2022/03/27 06:25:20;;;;;;;40.75;24.08;;;8.70;87.80;;;;;;5052842;28;20190;-82
2022/03/27 06:27:48;;;;;;;41.92;24.10;;;8.80;87.90;;;;;;5052982;28;20396;-84
2022/03/27 06:30:16;;;;;;;41.70;24.88;;;9.00;88.30;;;;;;5052955;28;20037;-85
2022/03/27 06:32:43;;;;;;;39.03;22.85;;;9.10;89.60;;;;;;5049323;28;20040;-83
2022/03/27 06:35:11;;;;;;;44.95;24.48;;;9.40;89.30;;;;;;5029910;28;20049;-76
2022/03/27 06:37:38;;;;;;;43.97;25.55;;;9.50;89.00;;;;;;5030955;28;20106;-83
2022/03/27 06:40:06;;;;;;;38.80;25.08;;;9.90;88.70;;;;;;5032871;28;20069;-78
2022/03/27 06:42:32;;;;;;;43.25;24.55;;;10.20;88.50;;;;;;5035357;28;20501;-82
2022/03/27 06:44:58;;;;;;;47.38;25.33;;;10.30;88.40;;;;;;5032831;28;20034;-83
2022/03/27 06:47:26;;;;;;;43.58;24.90;;;10.40;88.50;;;;;;5032734;28;20041;-71
2022/03/27 06:49:54;;;;;;;42.65;24.08;;;10.40;87.10;;;;;;5032642;28;20049;-82
2022/03/27 06:52:21;;;;;;;45.13;26.17;;;10.50;87.00;;;;;;5032685;28;20521;-73
2022/03/27 06:54:47;;;;;;;44.13;24.50;;;10.50;87.70;;;;;;5032693;28;20096;-71
2022/03/27 06:57:14;;;;;;;40.00;23.85;;;11.00;86.70;;;;;;5032734;28;20037;-82
2022/03/27 07:05:19;;;;;;;43.30;25.70;;;11.60;86.40;;;;;;5032545;28;20120;-84
2022/03/27 07:07:45;;;;;;;39.25;23.45;;;11.70;84.60;;;;;;5032364;28;20056;-84
2022/03/27 07:10:13;;;;;;;46.47;25.52;;;11.90;86.10;;;;;;5032563;28;20041;-79
2022/03/27 07:12:39;;;;;;;41.72;23.65;;;12.20;85.70;;;;;;5032609;28;20068;-79
2022/03/27 07:15:06;;;;;;;35.38;23.63;;;12.40;85.00;;;;;;5032144;28;20057;-82
2022/03/27 07:17:32;;;;;;;42.03;23.55;;;12.70;86.30;;;;;;5035002;28;20029;-77
2022/03/27 07:19:58;;;;;;;40.65;23.35;;;12.70;85.90;;;;;;5032453;28;20049;-82
2022/03/27 07:22:24;;;;;;;36.20;22.13;;;12.60;86.40;;;;;;5032621;28;20386;-82
2022/03/27 07:24:50;;;;;;;39.03;23.30;;;12.60;86.30;;;;;;5032475;28;20053;-81
2022/03/27 07:27:16;;;;;;;39.70;23.48;;;12.70;86.70;;;;;;5032427;28;20416;-79
2022/03/27 07:29:42;;;;;;;39.15;21.85;;;12.80;86.70;;;;;;5032992;28;20044;-83
2022/03/27 07:32:08;;;;;;;42.92;24.77;;;13.00;87.10;;;;;;5036157;28;20030;-81
2022/03/27 07:34:35;;;;;;;42.80;23.85;;;13.20;85.50;;;;;;5035249;28;20132;-81
2022/03/27 07:37:03;;;;;;;41.97;25.63;;;13.50;83.80;;;;;;5036021;28;20083;-83
2022/03/27 07:39:29;;;;;;;36.53;22.10;;;13.60;86.10;;;;;;5035992;28;20044;-78
2022/03/27 07:41:55;;;;;;;37.78;22.98;;;13.70;84.60;;;;;;5034114;28;20053;-70
2022/03/27 07:44:21;;;;;;;41.22;23.38;;;13.70;82.00;;;;;;5033263;28;20042;-80
2022/03/27 07:46:49;;;;;;;37.13;22.38;;;13.70;82.30;;;;;;5033468;28;20045;-71
2022/03/27 07:49:16;;;;;;;37.40;20.45;;;13.70;83.20;;;;;;5044640;28;20044;-78
2022/03/27 07:51:42;;;;;;;37.70;22.10;;;13.80;83.20;;;;;;5036650;28;20508;-77
2022/03/27 07:54:08;;;;;;;35.88;21.77;;;14.10;82.50;;;;;;5053796;28;20068;-82
2022/03/27 07:56:36;;;;;;;32.75;20.98;;;14.10;84.70;;;;;;5053033;28;20135;-81
2022/03/27 07:59:02;;;;;;;35.22;22.88;;;14.10;82.50;;;;;;5053259;28;20094;-70
2022/03/27 08:01:28;;;;;;;35.28;21.95;;;14.30;82.80;;;;;;5053595;28;20045;-75
2022/03/27 08:03:56;;;;;;;34.67;22.50;;;14.50;83.00;;;;;;5052895;28;20120;-77
2022/03/27 08:06:23;;;;;;;38.45;21.92;;;14.60;83.20;;;;;;5052910;28;20066;-80
2022/03/27 08:08:49;;;;;;;43.45;23.00;;;14.80;84.90;;;;;;5036175;28;20036;-79
2022/03/27 08:11:15;;;;;;;41.33;24.33;;;15.20;84.30;;;;;;5053167;28;20063;-79
2022/03/27 08:13:41;;;;;;;40.28;23.65;;;15.20;81.80;;;;;;5052974;28;20033;-80
2022/03/27 08:16:07;;;;;;;41.50;22.58;;;15.30;80.60;;;;;;5052829;28;20381;-80
2022/03/27 08:18:34;;;;;;;37.28;22.35;;;15.50;81.10;;;;;;5052954;28;20067;-75
2022/03/27 08:21:00;;;;;;;43.60;24.08;;;15.20;81.80;;;;;;5054025;28;20086;-78
2022/03/27 08:23:25;;;;;;;38.83;23.05;;;15.40;81.60;;;;;;5053245;28;20404;-85
2022/03/27 08:28:35;;;;;;;43.38;22.80;;;16.00;81.50;;;;;;5052801;28;20060;-80
2022/03/27 08:31:03;;;;;;;39.72;22.77;;;;;;;;;;5035586;28;20501;-76
2022/03/27 08:33:28;;;;;;;45.88;22.33;;;16.20;78.50;;;;;;5034540;28;20045;-78
2022/03/27 08:35:54;;;;;;;37.28;22.67;;;16.20;80.30;;;;;;5034586;28;20569;-77
2022/03/27 08:38:20;;;;;;;36.17;22.67;;;16.60;81.50;;;;;;5028466;28;20464;-76
2022/03/27 08:40:47;;;;;;;43.50;23.27;;;16.50;79.30;;;;;;5013660;28;20041;-78
2022/03/27 08:43:17;;;;;;;38.35;22.08;;;16.60;79.40;;;;;;5011490;28;20042;-78
2022/03/27 08:45:44;;;;;;;42.63;23.33;;;16.90;79.50;;;;;;5012634;28;20049;-79
2022/03/27 08:48:11;;;;;;;38.88;21.60;;;16.80;78.70;;;;;;5014483;28;20042;-77
2022/03/27 08:51:05;;;;;;;53.15;26.08;;;16.60;78.10;;;;;;5013296;28;20057;-72
2022/03/27 08:53:54;;;;;;;59.22;25.65;;;16.90;78.50;;;;;;5012806;28;20494;-72
2022/03/27 08:56:21;;;;;;;34.47;20.98;;;17.20;80.50;;;;;;5004428;28;20030;-71
2022/03/27 08:58:47;;;;;;;34.70;21.08;;;17.30;81.20;;;;;;5012635;28;20053;-72
2022/03/27 09:01:14;;;;;;;36.28;21.20;;;17.60;80.60;;;;;;5024246;28;20036;-73
2022/03/27 09:03:39;;;;;;;35.40;20.95;;;17.70;79.80;;;;;;5032211;28;20045;-70
2022/03/27 09:06:07;;;;;;;36.05;20.98;;;17.40;81.20;;;;;;5034189;28;20056;-73
2022/03/27 09:08:34;;;;;;;35.38;21.40;;;17.80;83.00;;;;;;5032350;28;20040;-74
2022/03/27 09:11:01;;;;;;;35.13;21.33;;;17.60;80.60;;;;;;5034054;28;20417;-73
2022/03/27 09:13:27;;;;;;;38.33;22.25;;;17.70;79.30;;;;;;5032542;28;20172;-75
2022/03/27 09:16:11;;;;;;;38.35;23.50;;;17.80;77.70;;;;;;5032087;28;20045;-75
2022/03/27 09:19:01;;;;;;;35.70;23.23;;;18.10;78.50;;;;;;5034415;28;20033;-74
2022/03/27 09:21:28;;;;;;;37.40;22.10;;;18.30;78.50;;;;;;5031962;28;20042;-73
2022/03/27 09:23:59;;;;;;;37.63;23.33;;;18.10;77.50;;;;;;5032302;28;20048;-72
2022/03/27 09:26:26;;;;;;;38.20;24.25;;;18.30;77.30;;;;;;5031212;28;20541;-73
2022/03/27 09:29:04;;;;;;;45.65;24.38;;;18.20;75.10;;;;;;5031475;28;20527;-72
2022/03/27 09:31:30;;;;;;;48.38;26.05;;;18.10;75.90;;;;;;5032173;28;20047;-72
2022/03/27 09:33:59;;;;;;;63.28;27.27;;;18.40;76.90;;;;;;5031898;28;20041;-73
2022/03/27 09:36:39;;;;;;;36.58;23.63;;;18.40;78.00;;;;;;5031613;28;20037;-75
2022/03/27 09:39:16;;;;;;;41.47;24.30;;;18.30;76.10;;;;;;5030550;28;20132;-71
2022/03/27 09:41:51;;;;;;;37.70;21.38;;;18.40;75.40;;;;;;5031667;28;20037;-75
2022/03/27 09:44:18;;;;;;;42.20;24.27;;;18.70;75.80;;;;;;5031476;28;20037;-74
2022/03/27 09:46:48;;;;;;;39.88;22.95;;;18.60;75.80;;;;;;5030923;28;20041;-73
2022/03/27 09:49:18;;;;;;;41.65;23.92;;;18.60;77.20;;;;;;5043569;28;20037;-73
2022/03/27 09:51:50;;;;;;;44.78;23.98;;;18.80;75.70;;;;;;5047056;28;20110;-73
2022/03/27 09:54:16;;;;;;;43.28;23.63;;;18.80;75.30;;;;;;5031639;28;20045;-73
2022/03/27 09:56:42;;;;;;;40.42;23.25;;;18.50;75.30;;;;;;5035565;28;20082;-73
2022/03/27 09:59:26;;;;;;;44.22;24.88;;;18.90;75.90;;;;;;5047334;28;20045;-70
2022/03/27 10:01:51;;;;;;;39.47;23.25;;;18.40;74.10;;;;;;5034846;28;20037;-73
2022/03/27 10:04:17;;;;;;;40.10;22.25;;;18.70;75.60;;;;;;5031369;28;20390;-76
2022/03/27 10:06:45;;;;;;;42.35;23.73;;;18.70;76.20;;;;;;5030835;28;20041;-75
2022/03/27 10:09:14;;;;;;;35.70;22.73;;;18.70;73.80;;;;;;5037173;28;20037;-73
2022/03/27 10:11:42;;;;;;;41.08;23.00;;;18.40;76.00;;;;;;5031640;28;20037;-76
2022/03/27 10:14:09;;;;;;;34.88;21.25;;;18.50;75.40;;;;;;5030609;28;20129;-77
2022/03/27 10:16:46;;;;;;;36.78;21.77;;;18.60;74.10;;;;;;5020062;28;20041;-73
2022/03/27 10:19:29;;;;;;;38.72;22.02;;;18.90;74.80;;;;;;5031576;28;20037;-78
2022/03/27 10:21:55;;;;;;;33.95;21.20;;;18.80;74.30;;;;;;5031688;28;20464;-78
2022/03/27 10:24:26;;;;;;;37.40;22.15;;;19.00;75.60;;;;;;5032319;28;20049;-78
2022/03/27 10:26:58;;;;;;;37.40;21.58;;;19.40;77.20;;;;;;5030445;28;20049;-78
2022/03/27 10:29:25;;;;;;;43.53;22.77;;;19.30;74.20;;;;;;5029854;28;20393;-80
2022/03/27 10:31:53;;;;;;;32.70;19.88;;;19.70;76.00;;;;;;5030742;28;20076;-82
2022/03/27 10:34:21;;;;;;;36.42;20.70;;;19.60;73.60;;;;;;5032520;28;20642;-81
2022/03/27 10:36:54;;;;;;;33.95;19.20;;;20.00;72.80;;;;;;5028842;28;20045;-74
2022/03/27 10:39:37;;;;;;;36.25;20.25;;;20.00;73.30;;;;;;5025316;28;20044;-79
2022/03/27 10:42:15;;;;;;;30.40;17.48;;;19.60;69.90;;;;;;5028882;28;20037;-72
2022/03/27 10:45:02;;;;;;;30.50;18.00;;;19.60;72.40;;;;;;5030138;28;20041;-81
2022/03/27 10:47:31;;;;;;;31.85;18.20;;;20.30;74.10;;;;;;5031225;28;20140;-73
2022/03/27 10:50:05;;;;;;;29.77;18.02;;;20.00;72.80;;;;;;5009917;28;20065;-80
2022/03/27 10:52:53;;;;;;;28.10;17.95;;;20.30;76.50;;;;;;5009393;28;20069;-84
2022/03/27 10:55:19;;;;;;;31.25;18.25;;;20.50;73.00;;;;;;4998581;28;20050;-74
2022/03/27 10:57:49;;;;;;;34.47;19.23;;;20.60;73.00;;;;;;5011688;28;20034;-77
2022/03/27 11:00:35;;;;;;;32.20;19.23;;;19.00;69.50;;;;;;5012736;28;20042;-78
2022/03/27 11:03:01;;;;;;;29.25;18.92;;;19.80;72.90;;;;;;5012059;28;20049;-79
2022/03/27 11:05:32;;;;;;;28.85;17.15;;;20.00;73.00;;;;;;5014327;28;20159;-79
2022/03/27 11:08:16;;;;;;;28.60;17.48;;;20.40;74.00;;;;;;5015887;28;20107;-77
2022/03/27 11:10:51;;;;;;;33.15;17.77;;;20.70;70.20;;;;;;5016562;28;20521;-80
2022/03/27 11:13:26;;;;;;;31.90;19.48;;;20.50;70.50;;;;;;5016455;28;20046;-81
2022/03/27 11:16:05;;;;;;;28.75;17.00;;;20.50;68.70;;;;;;5015288;28;20484;-88
2022/03/27 11:18:44;;;;;;;30.45;18.30;;;20.50;69.50;;;;;;5013490;28;20037;-86
2022/03/27 11:21:12;;;;;;;35.00;19.33;;;20.50;72.20;;;;;;5013788;28;20104;-84
2022/03/27 11:23:40;;;;;;;34.40;19.58;;;20.20;72.80;;;;;;5014703;28;20041;-89
2022/03/27 11:26:27;;;;;;;35.53;21.23;;;20.30;73.20;;;;;;5015057;28;20054;-90
2022/03/27 11:28:59;;;;;;;36.70;21.95;;;20.20;70.70;;;;;;5005678;28;20438;-90
2022/03/27 11:31:31;;;;;;;36.33;20.98;;;20.10;72.20;;;;;;5012287;28;20100;-85
2022/03/27 11:34:12;;;;;;;42.40;24.33;;;20.10;71.20;;;;;;5014982;28;20629;-91
2022/03/27 11:36:39;;;;;;;37.70;22.30;;;19.60;74.30;;;;;;5013928;28;20068;-79
2022/03/27 11:39:35;;;;;;;41.20;22.00;;;19.50;74.40;;;;;;5014886;28;20413;-90
2022/03/27 11:42:22;;;;;;;41.58;24.25;;;19.60;75.80;;;;;;5014038;28;20370;-89
2022/03/27 11:45:08;;;;;;;44.55;25.33;;;19.60;77.30;;;;;;5012151;28;20038;-73
2022/03/27 11:47:45;;;;;;;46.70;24.85;;;19.40;76.30;;;;;;5014510;28;20053;-90
2022/03/27 11:50:27;;;;;;;37.63;23.83;;;19.30;77.90;;;;;;5031864;28;20048;-81
2022/03/27 11:52:53;;;;;;;41.28;23.85;;;19.10;75.20;;;;;;5032383;28;20420;-75
2022/03/27 11:55:19;;;;;;;43.47;26.85;;;19.20;75.30;;;;;;5035296;28;20112;-84
2022/03/27 11:57:48;;;;;;;45.47;26.17;;;19.30;78.40;;;;;;5034619;28;20037;-86
2022/03/27 12:00:27;;;;;;;48.92;25.13;;;19.10;79.50;;;;;;5034578;28;20037;-83
2022/03/27 12:02:54;;;;;;;39.85;23.83;;;19.30;75.40;;;;;;5034651;28;20156;-76
2022/03/27 12:05:19;;;;;;;47.75;27.40;;;19.30;74.60;;;;;;5015789;28;20049;-74
2022/03/27 12:07:48;;;;;;;43.33;26.08;;;19.00;74.30;;;;;;5033550;28;20453;-74
2022/03/27 12:10:14;;;;;;;45.83;26.02;;;19.50;77.80;;;;;;5033467;28;20069;-83
2022/03/27 12:13:05;;;;;;;40.97;25.02;;;19.50;79.10;;;;;;5035245;28;20065;-83
2022/03/27 12:15:51;;;;;;;43.40;26.10;;;19.60;77.90;;;;;;5033900;28;20060;-74
2022/03/27 12:18:49;;;;;;;51.67;30.00;;;19.30;78.20;;;;;;5033852;28;20529;-83
2022/03/27 12:21:18;;;;;;;47.88;26.25;;;19.20;80.00;;;;;;4989747;28;20030;-74
2022/03/27 12:23:49;;;;;;;47.85;27.98;;;19.00;78.30;;;;;;5034313;28;20041;-83
2022/03/27 12:29:49;;;;;;;47.78;26.90;;;19.30;76.50;;;;;;5035059;28;20059;-75
2022/03/27 12:32:30;;;;;;;46.72;25.02;;;19.30;74.00;;;;;;5035086;28;20037;-83
2022/03/27 12:35:01;;;;;;;;;;;19.10;75.30;;;;;;5034901;28;20045;-79
2022/03/27 12:37:29;;;;;;;38.60;22.75;;;18.90;76.30;;;;;;5017253;28;19919;-80
2022/03/27 12:39:55;;;;;;;43.90;24.42;;;19.20;77.70;;;;;;5034720;28;20084;-83
2022/03/27 12:42:34;;;;;;;46.28;25.23;;;19.10;74.20;;;;;;5034865;28;20413;-83
2022/03/27 12:45:23;;;;;;;50.78;27.25;;;19.20;72.90;;;;;;5035000;28;20037;-82
2022/03/27 12:48:02;;;;;;;37.47;22.80;;;19.30;72.80;;;;;;5034698;28;20461;-74
2022/03/27 12:50:29;;;;;;;45.92;24.95;;;19.00;70.00;;;;;;5034840;28;20079;-72
2022/03/27 12:53:12;;;;;;;43.15;23.20;;;19.00;72.50;;;;;;5034704;28;20087;-82